• Join FlightAware (Why Join?)
  • Login
  • US Flag 
02:14AM EDT


 

Airport Tracker/Info


-or-


 

Live Flight TrackerFlight Track Log ✈ UAL5911 ✈ 13-Apr-2013 ✈ KORD - KPIA

Flight Track Log - Related Links

Times and Time Zones

All times are in EDT time to prevent confusion due to time zone crossing. See the UAL5911 flight status page for this flight to view local times or setup timezone preferences in your user account.

Time Position Orientation Groundspeed Altitude Reporting Facility
EDT Latitude Longitude Course Direction KTS MPH feet Rate Location/Type
02:23PM 41.9500 -87.9333 270° West 142 163 3,400  Level Chicago TRACON
02:24PM 41.9500 -88.0000 270° West 219 252 5,400 2,220 Climbing Chicago TRACON
02:26PM 41.9667 -88.3577 270° West  Level FlightAware Approximate
02:26PM 41.9358 -88.1333 262° West 223 257 9,400  Level Chicago Center
02:27PM 41.9667 -88.4721 270° West  Level FlightAware Approximate
02:27PM 41.9303 -88.2197 265° West 231 266 11,500  Level Chicago Center
02:28PM 41.9667 -88.5865 270° West  Level FlightAware Approximate
02:28PM 41.9233 -88.3119 264° West 244 281 13,800  Level Chicago Center
02:29PM 41.9153 -88.4231 264° West 250 288 15,800 1,020 Climbing Chicago Center
02:30PM 41.8878 -88.5200 249° West 278 320 16,000 60 Climbing Chicago Center
02:31PM 41.8536 -88.6347 248° West 322 371 16,000  Level Chicago Center
02:32PM 41.8169 -88.7553 248° West 345 397 16,000 -60 Level Chicago Center
02:33PM 41.7644 -88.8611 236° Southwest 350 403 15,900 -60 Descending Chicago Center
02:34PM 41.6733 -88.9719 222° Southwest 368 423 15,900  Level Chicago Center
02:35PM 41.6000 -89.0614 222° Southwest 362 417 15,900  Level Chicago Center
02:36PM 41.5108 -89.1319 211° Southwest 373 429 16,000 -420 Climbing Chicago Center
02:37PM 41.4111 -89.1992 207° Southwest 376 433 15,100 -960 Descending Chicago Center
02:38PM 41.3214 -89.2614 208° Southwest 366 421 14,100 -1,080 Descending Chicago Center
02:39PM 41.2317 -89.3203 206° Southwest 361 415 13,000 -1,080 Descending Chicago Center
02:40PM 41.1428 -89.3781 206° Southwest 356 410 12,000 -1,020 Descending Chicago Center
02:41PM 41.0542 -89.4356 206° Southwest 355 409 11,000 -960 Descending Chicago Center
02:42PM 40.9569 -89.4400 182° South 349 402 10,100 -780 Descending Chicago Center
02:43PM 40.8878 -89.4736 200° South 272 313 9,500 -2,220 Descending Chicago Center
02:44PM 40.8156 -89.5178 205° Southwest 246 283 5,600 -3,120 Descending Chicago Center
02:45PM 40.7631 -89.5708 217° Southwest 241 277 3,100 -2,460 Descending Chicago Center